createdAt,value
2018-02-17T00:01:30.193Z,216.03
2018-02-17T00:03:57.845Z,93.43
2018-02-17T00:06:25.512Z,328.40
2018-02-17T00:08:53.180Z,225.87
2018-02-17T00:11:21.580Z,218.47
2018-02-17T00:13:49.236Z,316.63
2018-02-17T00:16:16.909Z,47.43
2018-02-17T00:18:44.549Z,127.40
2018-02-17T00:21:13.033Z,180.97
2018-02-17T00:23:41.509Z,109.27
2018-02-17T00:26:09.905Z,166.33
2018-02-17T00:28:37.626Z,243.67
2018-02-17T00:31:05.295Z,466.50
2018-02-17T00:33:32.936Z,160.33
2018-02-17T00:36:00.594Z,129.83
2018-02-17T00:38:28.341Z,517.10
2018-02-17T00:40:55.972Z,131.43
2018-02-17T00:43:24.403Z,290.57
2018-02-17T00:45:52.070Z,293.90
2018-02-17T00:48:19.744Z,454.93
2018-02-17T00:50:47.418Z,186.87
2018-02-17T00:53:15.098Z,139.60
2018-02-17T00:55:43.488Z,230.93
2018-02-17T00:58:11.172Z,221.40
2018-02-17T01:00:38.824Z,161.27
2018-02-17T01:03:06.463Z,202.53
2018-02-17T01:05:34.896Z,207.07
2018-02-17T01:08:02.570Z,272.53
2018-02-17T01:10:30.220Z,287.90
2018-02-17T01:12:57.895Z,162.63
2018-02-17T01:15:25.560Z,263.47
2018-02-17T01:17:53.181Z,481.20
2018-02-17T01:20:20.844Z,414.33
2018-02-17T01:22:48.513Z,263.53
2018-02-17T01:25:16.153Z,76.90
2018-02-17T01:27:44.576Z,409.17
2018-02-17T01:30:12.248Z,294.13
2018-02-17T01:32:39.887Z,356.60
2018-02-17T01:35:07.563Z,157.27
2018-02-17T01:37:35.224Z,186.90
2018-02-17T01:40:02.870Z,323.17
2018-02-17T01:42:30.595Z,311.47
2018-02-17T01:44:58.269Z,258.33
2018-02-17T01:47:25.900Z,380.97
2018-02-17T01:49:54.331Z,211.17
2018-02-17T01:52:22.028Z,238.90
2018-02-17T01:54:50.509Z,296.80
2018-02-17T01:57:18.924Z,386.40
2018-02-17T01:59:46.624Z,414.70
2018-02-17T02:02:14.259Z,282.10
2018-02-17T02:04:41.912Z,278.10
2018-02-17T02:07:09.614Z,296.30
2018-02-17T02:09:37.286Z,270.73
2018-02-17T02:12:04.948Z,193.63
2018-02-17T02:14:33.394Z,206.73
2018-02-17T02:17:01.020Z,201.10
2018-02-17T02:19:28.696Z,265.67
2018-02-17T02:21:56.354Z,230.40
2018-02-17T02:24:23.992Z,169.83
2018-02-17T02:26:51.666Z,165.00
2018-02-17T02:29:19.387Z,163.07
2018-02-17T02:31:47.036Z,144.57
2018-02-17T02:34:14.700Z,172.57
2018-02-17T02:36:42.371Z,83.37
2018-02-17T02:39:10.774Z,114.07
2018-02-17T02:41:38.436Z,163.90
2018-02-17T02:44:06.101Z,120.23
2018-02-17T02:46:33.748Z,131.20
2018-02-17T02:49:02.134Z,138.10
2018-02-17T02:51:29.841Z,131.00
2018-02-17T02:53:58.036Z,143.77
2018-02-17T02:56:26.268Z,138.63
2018-02-17T02:58:54.285Z,123.13
2018-02-17T03:01:23.599Z,111.87
2018-02-17T03:03:52.173Z,134.40
2018-02-17T03:06:20.598Z,98.13
2018-02-17T03:08:48.224Z,126.30
2018-02-17T03:11:15.885Z,137.37
2018-02-17T03:13:43.588Z,152.63
2018-02-17T03:16:11.226Z,144.80
2018-02-17T03:18:38.905Z,145.17
2018-02-17T03:21:06.576Z,145.17
2018-02-17T03:23:34.216Z,162.50
2018-02-17T03:26:01.876Z,112.77
2018-02-17T03:28:29.580Z,113.83
2018-02-17T03:30:57.237Z,151.33
2018-02-17T03:33:24.949Z,114.20
2018-02-17T03:35:52.602Z,127.77
2018-02-17T03:38:20.234Z,82.80
2018-02-17T03:40:48.655Z,123.57
2018-02-17T03:43:16.304Z,119.80
2018-02-17T03:45:43.922Z,114.87
2018-02-17T03:48:11.604Z,139.53
2018-02-17T03:50:40.042Z,109.93
2018-02-17T03:53:07.713Z,158.00
2018-02-17T03:55:35.370Z,132.63
2018-02-17T03:58:03.021Z,164.13
2018-02-17T04:00:30.647Z,98.73
2018-02-17T04:02:58.300Z,102.67
2018-02-17T04:05:26.808Z,137.27
2018-02-17T04:07:55.106Z,155.47
2018-02-17T04:10:23.541Z,162.80
2018-02-17T04:12:51.774Z,448.40
2018-02-17T04:15:20.275Z,159.57
2018-02-17T04:17:47.944Z,109.47
2018-02-17T04:20:15.615Z,125.43
2018-02-17T04:22:44.016Z,101.63
2018-02-17T04:25:11.683Z,91.67
2018-02-17T04:27:39.336Z,100.83
2018-02-17T04:30:06.978Z,103.00
2018-02-17T04:32:34.630Z,104.63
2018-02-17T04:35:02.298Z,87.30
2018-02-17T04:37:29.939Z,65.03
2018-02-17T04:43:02.050Z,73.53
2018-02-17T04:45:33.403Z,74.33
2018-02-17T04:51:10.800Z,60.57
2018-02-17T04:53:44.192Z,80.30
2018-02-17T04:56:27.661Z,57.23
2018-02-17T05:02:02.440Z,62.73
2018-02-17T05:04:44.832Z,78.80
2018-02-17T05:07:16.984Z,68.43
2018-02-17T05:09:45.457Z,75.40
2018-02-17T05:12:13.895Z,65.47
2018-02-17T05:14:57.341Z,73.27
2018-02-17T05:17:40.681Z,70.53
2018-02-17T05:20:20.111Z,69.63
2018-02-17T05:22:50.497Z,78.50
2018-02-17T05:25:20.839Z,61.57
2018-02-17T05:27:49.034Z,80.80
2018-02-17T05:30:20.226Z,73.97
2018-02-17T05:32:53.538Z,72.10
2018-02-17T05:35:24.131Z,60.23
2018-02-17T05:37:51.847Z,74.40
2018-02-17T05:40:25.819Z,68.97
2018-02-17T05:42:54.284Z,68.00
2018-02-17T05:45:21.960Z,70.63
2018-02-17T05:48:04.496Z,80.20
2018-02-17T05:50:33.101Z,69.77
2018-02-17T05:53:01.512Z,64.70
2018-02-17T05:55:29.168Z,78.67
2018-02-17T05:57:57.023Z,79.23
2018-02-17T06:00:25.411Z,76.10
2018-02-17T06:02:53.068Z,96.00
2018-02-17T06:05:20.770Z,122.20
2018-02-17T06:07:48.445Z,158.87
2018-02-17T06:10:16.129Z,119.87
2018-02-17T06:12:44.557Z,131.20
2018-02-17T06:15:12.229Z,111.60
2018-02-17T06:17:39.907Z,118.97
2018-02-17T06:20:07.575Z,164.17
2018-02-17T06:22:35.213Z,111.23
2018-02-17T06:25:02.914Z,114.50
2018-02-17T06:27:31.337Z,255.57
2018-02-17T06:29:58.979Z,213.13
2018-02-17T06:32:26.660Z,189.73
2018-02-17T06:34:54.318Z,144.90
2018-02-17T06:37:21.944Z,233.27
2018-02-17T06:39:49.657Z,185.43
2018-02-17T06:42:17.334Z,230.20
2018-02-17T06:44:44.981Z,205.33
2018-02-17T06:47:12.668Z,198.50
2018-02-17T06:49:41.135Z,164.37
2018-02-17T06:52:08.785Z,149.93
2018-02-17T06:54:36.464Z,216.37
2018-02-17T06:57:04.141Z,223.90
2018-02-17T06:59:31.822Z,231.40
2018-02-17T07:01:59.493Z,203.50
2018-02-17T07:04:27.163Z,310.53
2018-02-17T07:06:54.796Z,240.43
2018-02-17T07:09:22.470Z,164.77
2018-02-17T07:11:50.139Z,196.47
2018-02-17T07:14:17.768Z,248.47
2018-02-17T07:16:45.443Z,202.07
2018-02-17T07:19:13.102Z,151.90
2018-02-17T07:21:40.771Z,232.23
2018-02-17T07:24:08.485Z,155.87
2018-02-17T07:26:36.973Z,273.53
2018-02-17T07:29:05.416Z,170.87
2018-02-17T07:31:33.089Z,283.57
2018-02-17T07:34:00.751Z,200.80
2018-02-17T07:36:28.402Z,230.93
2018-02-17T07:38:56.075Z,208.03
2018-02-17T07:41:23.735Z,231.20
2018-02-17T07:43:51.415Z,183.97
2018-02-17T07:46:19.857Z,132.70
2018-02-17T07:48:47.536Z,150.63
2018-02-17T07:51:15.937Z,143.00
2018-02-17T07:53:44.364Z,149.23
2018-02-17T07:56:12.020Z,127.13
2018-02-17T07:58:39.664Z,121.07
2018-02-17T08:01:07.372Z,109.97
2018-02-17T08:03:35.054Z,147.53
2018-02-17T08:06:03.460Z,143.90
2018-02-17T08:08:31.147Z,135.63
2018-02-17T08:10:58.821Z,118.27
2018-02-17T08:13:26.442Z,140.63
2018-02-17T08:15:54.113Z,172.27
2018-02-17T08:18:21.792Z,99.23
2018-02-17T08:20:50.108Z,154.30
2018-02-17T08:23:17.781Z,107.07
2018-02-17T08:25:45.428Z,79.83
2018-02-17T08:28:13.835Z,100.77
2018-02-17T08:30:42.322Z,90.10
2018-02-17T08:33:10.019Z,87.40
2018-02-17T08:35:37.738Z,100.67
2018-02-17T08:38:05.392Z,73.83
2018-02-17T08:40:33.044Z,71.50
2018-02-17T08:43:00.669Z,89.80
2018-02-17T08:45:28.339Z,67.80
2018-02-17T08:47:56.778Z,74.13
2018-02-17T08:50:24.405Z,74.97
2018-02-17T08:52:52.088Z,66.30
2018-02-17T08:55:19.766Z,65.90
2018-02-17T08:57:47.403Z,64.33
2018-02-17T09:00:15.125Z,57.73
2018-02-17T09:02:43.558Z,66.47
2018-02-17T09:05:11.233Z,73.37
2018-02-17T09:07:38.936Z,52.90
2018-02-17T09:10:06.600Z,50.60
2018-02-17T09:12:34.258Z,45.70
2018-02-17T09:15:01.926Z,49.60
2018-02-17T09:17:29.630Z,45.33
2018-02-17T09:19:57.252Z,55.13
2018-02-17T09:22:24.918Z,39.07
2018-02-17T09:24:52.582Z,44.17
2018-02-17T09:27:20.214Z,39.77
2018-02-17T09:29:48.666Z,40.90
2018-02-17T09:32:16.368Z,35.50
2018-02-17T09:34:44.004Z,35.53
2018-02-17T09:37:12.428Z,35.30
2018-02-17T09:39:40.111Z,33.03
2018-02-17T09:42:07.737Z,40.40
2018-02-17T09:44:35.400Z,33.23
2018-02-17T09:47:03.088Z,41.13
2018-02-17T09:49:30.719Z,35.60
2018-02-17T09:51:58.400Z,29.17
2018-02-17T09:54:26.073Z,27.60
2018-02-17T09:56:53.720Z,31.97
2018-02-17T09:59:21.401Z,29.93
2018-02-17T10:01:49.057Z,37.20
2018-02-17T10:04:16.700Z,34.60
2018-02-17T10:06:44.400Z,42.27
2018-02-17T10:09:12.833Z,37.70
2018-02-17T10:11:40.456Z,35.03
2018-02-17T10:14:08.120Z,29.10
2018-02-17T10:16:35.805Z,31.80
2018-02-17T10:19:03.452Z,32.17
2018-02-17T10:21:31.105Z,25.70
2018-02-17T10:23:58.765Z,38.30
2018-02-17T10:26:26.417Z,26.30
2018-02-17T10:28:54.082Z,24.57
2018-02-17T10:31:21.756Z,29.77
2018-02-17T10:33:49.408Z,26.67
2018-02-17T10:36:17.073Z,26.57
2018-02-17T10:38:44.741Z,32.70
2018-02-17T10:41:12.384Z,33.90
2018-02-17T10:43:40.069Z,23.83
2018-02-17T10:46:07.715Z,20.20
2018-02-17T10:48:35.363Z,23.03
2018-02-17T10:51:03.024Z,25.60
2018-02-17T10:53:30.683Z,32.60
2018-02-17T10:55:58.329Z,32.27
2018-02-17T10:58:26.765Z,18.40
2018-02-17T11:00:54.434Z,22.37
2018-02-17T11:03:22.070Z,23.37
2018-02-17T11:05:49.822Z,24.53
2018-02-17T11:08:17.486Z,19.10
2018-02-17T11:10:45.111Z,23.40
2018-02-17T11:13:13.520Z,23.37
2018-02-17T11:15:41.180Z,22.13
2018-02-17T11:18:08.828Z,28.50
2018-02-17T11:20:36.493Z,24.23
2018-02-17T11:23:04.154Z,26.33
2018-02-17T11:25:32.554Z,22.00
2018-02-17T11:28:00.205Z,28.77
2018-02-17T11:30:27.877Z,25.83
2018-02-17T11:32:55.551Z,27.50
2018-02-17T11:35:23.676Z,23.10
2018-02-17T11:37:51.596Z,23.00
2018-02-17T11:40:19.454Z,29.67
2018-02-17T11:42:47.683Z,28.13
2018-02-17T11:45:15.522Z,35.50
2018-02-17T11:47:45.098Z,31.03
2018-02-17T11:50:12.774Z,30.40
2018-02-17T11:52:41.437Z,34.47
2018-02-17T11:55:09.198Z,31.57
2018-02-17T11:57:36.960Z,39.30
2018-02-17T12:00:05.669Z,39.30
2018-02-17T12:02:34.347Z,35.50
2018-02-17T12:05:03.059Z,35.37
2018-02-17T12:07:31.098Z,36.83
2018-02-17T12:09:59.680Z,43.07
2018-02-17T12:12:27.567Z,36.07
2018-02-17T12:14:56.076Z,42.33
2018-02-17T12:17:23.996Z,48.40
2018-02-17T12:19:52.440Z,43.00
2018-02-17T12:22:20.168Z,46.27
2018-02-17T12:24:48.664Z,45.23
2018-02-17T12:27:16.377Z,45.07
2018-02-17T12:29:44.153Z,44.63
2018-02-17T12:32:12.562Z,38.03
2018-02-17T12:34:40.524Z,42.03
2018-02-17T12:37:08.378Z,45.20
2018-02-17T12:39:36.456Z,39.63
2018-02-17T12:42:05.435Z,43.53
2018-02-17T12:44:33.212Z,39.30
2018-02-17T12:47:01.081Z,47.87
2018-02-17T12:49:28.844Z,44.83
2018-02-17T12:51:56.877Z,46.07
2018-02-17T12:54:25.369Z,48.37
2018-02-17T12:56:53.826Z,40.50
2018-02-17T12:59:21.805Z,40.00
2018-02-17T13:01:49.468Z,45.03
2018-02-17T13:04:17.958Z,43.73
2018-02-17T13:06:46.043Z,48.23
2018-02-17T13:09:13.707Z,52.07
2018-02-17T13:11:41.409Z,46.77
2018-02-17T13:14:09.321Z,58.13
2018-02-17T13:16:37.106Z,74.93
2018-02-17T13:19:04.856Z,63.40
2018-02-17T13:21:32.720Z,62.87
2018-02-17T13:24:00.597Z,54.93
2018-02-17T13:26:29.038Z,85.40
2018-02-17T13:28:57.473Z,45.13
2018-02-17T13:31:25.085Z,42.30
2018-02-17T13:33:52.747Z,63.37
2018-02-17T13:36:20.413Z,40.53
2018-02-17T13:38:48.080Z,50.50
2018-02-17T13:41:15.747Z,43.30
2018-02-17T13:43:43.411Z,38.57
2018-02-17T13:46:11.023Z,31.00
2018-02-17T13:48:39.444Z,49.73
2018-02-17T13:51:07.134Z,33.40
2018-02-17T13:53:34.769Z,38.53
2018-02-17T13:56:02.424Z,31.97
2018-02-17T13:58:30.078Z,36.67
2018-02-17T14:00:57.704Z,43.63
2018-02-17T14:03:27.085Z,39.40
2018-02-17T14:05:54.753Z,33.43
2018-02-17T14:08:22.395Z,37.63
2018-02-17T14:10:50.073Z,40.97
2018-02-17T14:13:17.808Z,40.23
2018-02-17T14:15:45.472Z,45.93
2018-02-17T14:18:13.146Z,37.50
2018-02-17T14:20:40.812Z,48.90
2018-02-17T14:23:08.834Z,44.03
2018-02-17T14:25:36.765Z,43.83
2018-02-17T14:28:04.899Z,48.50
2018-02-17T14:30:32.823Z,35.33
2018-02-17T14:33:00.981Z,35.47
2018-02-17T14:35:37.177Z,33.10
2018-02-17T14:38:04.885Z,32.40
2018-02-17T14:40:32.560Z,33.83
2018-02-17T14:43:00.992Z,31.33
2018-02-17T14:45:28.707Z,28.97
2018-02-17T14:47:57.238Z,39.37
2018-02-17T14:50:25.160Z,32.60
2018-02-17T14:52:52.912Z,40.00
2018-02-17T14:55:21.424Z,36.30
2018-02-17T14:57:49.117Z,30.30
2018-02-17T15:00:16.860Z,34.23
2018-02-17T15:02:44.525Z,41.43
2018-02-17T15:05:12.222Z,30.93
2018-02-17T15:07:39.918Z,38.87
2018-02-17T15:10:07.637Z,39.13
2018-02-17T15:12:35.333Z,39.43
2018-02-17T15:15:03.016Z,33.60
2018-02-17T15:17:30.676Z,32.60
2018-02-17T15:19:58.366Z,37.93
2018-02-17T15:22:26.038Z,44.67
2018-02-17T15:24:53.708Z,33.43
2018-02-17T15:27:21.433Z,25.67
2018-02-17T15:29:49.369Z,26.40
2018-02-17T15:32:17.296Z,23.73
2018-02-17T15:34:48.379Z,26.17
2018-02-17T15:37:16.494Z,25.00
2018-02-17T15:39:44.568Z,29.27
2018-02-17T15:42:15.000Z,25.73
2018-02-17T15:44:43.170Z,24.97
2018-02-17T15:47:11.297Z,24.30
2018-02-17T15:49:39.349Z,27.77
2018-02-17T15:52:08.704Z,25.40
2018-02-17T15:54:36.551Z,19.63
2018-02-17T15:57:04.954Z,23.17
2018-02-17T15:59:33.912Z,18.83
2018-02-17T16:02:02.233Z,17.30
2018-02-17T16:04:30.405Z,19.50
2018-02-17T16:06:58.584Z,18.97
2018-02-17T16:09:27.263Z,18.57
2018-02-17T16:11:56.118Z,15.70
2018-02-17T16:14:24.894Z,16.37
2018-02-17T16:16:54.298Z,15.70
2018-02-17T16:19:24.685Z,23.20
2018-02-17T16:21:52.401Z,17.83
2018-02-17T16:24:20.882Z,23.27
2018-02-17T16:26:48.599Z,17.93
2018-02-17T16:29:16.300Z,18.47
2018-02-17T16:31:43.955Z,19.80
2018-02-17T16:34:11.691Z,24.43
2018-02-17T16:36:39.377Z,20.47
2018-02-17T16:39:07.043Z,18.23
2018-02-17T16:41:34.870Z,17.40
2018-02-17T16:44:03.340Z,20.80
2018-02-17T16:46:31.063Z,20.93
2018-02-17T16:48:59.037Z,21.67
2018-02-17T16:51:28.148Z,24.23
2018-02-17T16:53:56.540Z,29.87
2018-02-17T16:56:24.568Z,22.27
2018-02-17T16:58:52.906Z,20.37
2018-02-17T17:01:21.311Z,24.33
2018-02-17T17:03:49.268Z,22.87
2018-02-17T17:06:17.308Z,23.43
2018-02-17T17:08:45.295Z,23.93
2018-02-17T17:11:13.023Z,24.77
2018-02-17T17:13:40.681Z,25.27
2018-02-17T17:16:08.305Z,27.07
2018-02-17T17:18:35.971Z,26.53
2018-02-17T17:21:08.151Z,28.33
2018-02-17T17:23:36.037Z,24.43
2018-02-17T17:26:04.074Z,24.10
2018-02-17T17:28:32.068Z,27.43
2018-02-17T17:31:00.157Z,27.23
2018-02-17T17:33:28.477Z,27.93
2018-02-17T17:35:57.392Z,30.20
2018-02-17T17:38:25.942Z,26.80
2018-02-17T17:40:53.887Z,23.53
2018-02-17T17:43:21.880Z,27.60
2018-02-17T17:45:49.832Z,28.07
2018-02-17T17:48:18.061Z,29.33
2018-02-17T17:50:46.240Z,25.43
2018-02-17T17:53:14.272Z,27.27
2018-02-17T17:55:44.001Z,28.80
2018-02-17T17:58:12.371Z,25.20
2018-02-17T18:00:40.393Z,26.07
2018-02-17T18:03:09.239Z,26.70
2018-02-17T18:05:37.445Z,36.10
2018-02-17T18:08:05.518Z,34.60
2018-02-17T18:10:33.951Z,29.10
2018-02-17T18:13:11.708Z,31.13
2018-02-17T18:15:40.500Z,32.00
2018-02-17T18:18:20.391Z,41.43
2018-02-17T18:20:51.636Z,39.70
2018-02-17T18:23:24.513Z,37.47
2018-02-17T18:25:55.125Z,31.97
2018-02-17T18:28:24.614Z,41.07
2018-02-17T18:30:52.890Z,37.30
2018-02-17T18:33:21.785Z,39.47
2018-02-17T18:35:49.838Z,32.57
2018-02-17T18:38:20.260Z,36.73
2018-02-17T18:40:50.447Z,34.13
2018-02-17T18:43:24.599Z,38.40
2018-02-17T18:45:58.555Z,33.80
2018-02-17T18:48:30.111Z,42.30
2018-02-17T18:50:58.279Z,40.13
2018-02-17T18:53:26.844Z,35.93
2018-02-17T18:55:54.746Z,34.23
2018-02-17T18:58:22.480Z,37.13
2018-02-17T19:00:50.229Z,36.97
2018-02-17T19:03:18.097Z,32.80
2018-02-17T19:05:45.890Z,36.90
2018-02-17T19:08:13.746Z,34.67
2018-02-17T19:10:41.580Z,35.30
2018-02-17T19:13:09.505Z,38.17
2018-02-17T19:15:37.327Z,36.10
2018-02-17T19:18:04.943Z,37.83
2018-02-17T19:20:32.858Z,40.40
2018-02-17T19:23:00.883Z,32.97
2018-02-17T19:25:29.329Z,37.47
2018-02-17T19:27:57.024Z,32.00
2018-02-17T19:30:25.068Z,35.80
2018-02-17T19:32:53.541Z,29.53
2018-02-17T19:35:21.212Z,32.07
2018-02-17T19:37:49.256Z,32.97
2018-02-17T19:40:17.080Z,39.93
2018-02-17T19:42:44.761Z,37.50
2018-02-17T19:45:12.651Z,44.97
2018-02-17T19:47:41.344Z,38.40
2018-02-17T19:50:09.042Z,34.63
2018-02-17T19:52:36.704Z,35.70
2018-02-17T19:55:04.641Z,41.13
2018-02-17T19:57:32.672Z,37.17
2018-02-17T20:00:00.380Z,34.93
2018-02-17T20:02:29.045Z,33.50
2018-02-17T20:04:57.118Z,38.77
2018-02-17T20:07:25.011Z,38.20
2018-02-17T20:09:53.596Z,41.50
2018-02-17T20:12:22.275Z,42.53
2018-02-17T20:14:50.760Z,38.40
2018-02-17T20:17:18.513Z,41.57
2018-02-17T20:19:46.298Z,53.10
2018-02-17T20:22:14.142Z,40.93
2018-02-17T20:24:42.028Z,37.30
2018-02-17T20:27:09.973Z,40.97
2018-02-17T20:29:38.527Z,44.03
2018-02-17T20:32:07.177Z,39.10
2018-02-17T20:34:34.935Z,39.50
2018-02-17T20:37:02.656Z,34.77
2018-02-17T20:39:31.092Z,35.10
2018-02-17T20:41:58.851Z,36.73
2018-02-17T20:44:26.646Z,37.27
2018-02-17T20:46:54.496Z,36.93
2018-02-17T20:49:22.287Z,35.90
2018-02-17T20:51:50.958Z,38.00
2018-02-17T20:54:18.698Z,39.53
2018-02-17T20:56:46.492Z,45.27
2018-02-17T20:59:14.313Z,42.27
2018-02-17T21:01:42.101Z,38.97
2018-02-17T21:04:10.050Z,38.63
2018-02-17T21:06:37.977Z,37.00
2018-02-17T21:09:05.922Z,38.63
2018-02-17T21:11:34.557Z,38.50
2018-02-17T21:14:02.450Z,39.40
2018-02-17T21:16:30.287Z,34.00
2018-02-17T21:18:58.128Z,34.60
2018-02-17T21:21:26.039Z,34.07
2018-02-17T21:23:53.958Z,42.20
2018-02-17T21:26:21.692Z,38.07
2018-02-17T21:28:50.128Z,39.17
2018-02-17T21:31:17.763Z,35.53
2018-02-17T21:33:45.543Z,32.43
2018-02-17T21:36:13.212Z,34.00
2018-02-17T21:38:40.827Z,44.37
2018-02-17T21:41:09.314Z,37.93
2018-02-17T21:43:37.053Z,36.57
2018-02-17T21:46:04.705Z,41.17
2018-02-17T21:48:33.742Z,33.13
2018-02-17T21:51:01.544Z,34.27
2018-02-17T21:53:30.206Z,34.00
2018-02-17T21:55:57.970Z,35.00
2018-02-17T21:58:26.831Z,36.50
2018-02-17T22:00:54.830Z,45.73
2018-02-17T22:03:22.803Z,37.67
2018-02-17T22:05:50.790Z,42.13
2018-02-17T22:08:19.651Z,36.17
2018-02-17T22:10:48.301Z,37.93
2018-02-17T22:13:16.347Z,34.00
2018-02-17T22:15:44.931Z,39.70
2018-02-17T22:18:13.455Z,36.67
2018-02-17T22:20:41.227Z,35.47
2018-02-17T22:23:09.099Z,35.30
2018-02-17T22:25:36.978Z,36.00
2018-02-17T22:28:04.861Z,39.17
2018-02-17T22:30:33.564Z,37.97
2018-02-17T22:33:01.287Z,36.10
2018-02-17T22:35:29.223Z,36.40
2018-02-17T22:37:56.959Z,32.33
2018-02-17T22:40:24.880Z,36.83
2018-02-17T22:42:52.838Z,41.10
2018-02-17T22:45:20.800Z,35.30
2018-02-17T22:47:48.804Z,43.63
2018-02-17T22:50:17.254Z,36.23
2018-02-17T22:52:45.701Z,36.87
2018-02-17T22:55:14.142Z,39.30
2018-02-17T22:57:42.812Z,37.80
2018-02-17T23:03:05.238Z,43.83
2018-02-17T23:05:33.137Z,41.00
2018-02-17T23:08:00.805Z,46.97
2018-02-17T23:10:29.230Z,42.93
2018-02-17T23:12:56.953Z,38.37
2018-02-17T23:15:25.450Z,37.90
2018-02-17T23:17:53.134Z,43.87
2018-02-17T23:20:20.814Z,44.10
2018-02-17T23:22:48.508Z,42.83
2018-02-17T23:25:16.928Z,43.10
2018-02-17T23:27:44.654Z,47.20
2018-02-17T23:30:13.092Z,44.97
2018-02-17T23:32:40.761Z,40.27
2018-02-17T23:35:08.450Z,47.00
2018-02-17T23:37:36.919Z,42.53
2018-02-17T23:40:04.544Z,45.70
2018-02-17T23:42:32.227Z,40.67
2018-02-17T23:44:59.930Z,46.03
2018-02-17T23:47:27.560Z,49.10
2018-02-17T23:49:55.236Z,48.70
2018-02-17T23:52:23.663Z,42.97
2018-02-17T23:54:51.304Z,47.47
2018-02-17T23:57:18.961Z,49.87
2018-02-17T23:59:46.630Z,46.67
